createdAt,value
2022-10-28T00:01:37.483Z,6.62
2022-10-28T00:04:07.080Z,6.63
2022-10-28T00:06:41.314Z,6.61
2022-10-28T00:09:12.206Z,6.60
2022-10-28T00:11:41.198Z,6.56
2022-10-28T00:14:10.705Z,6.54
2022-10-28T00:16:39.356Z,6.55
2022-10-28T00:19:11.513Z,6.57
2022-10-28T00:21:42.349Z,6.57
2022-10-28T00:24:13.184Z,6.57
2022-10-28T00:26:44.042Z,6.58
2022-10-28T00:29:18.858Z,6.58
2022-10-28T00:31:49.050Z,6.56
2022-10-28T00:34:21.569Z,6.51
2022-10-28T00:36:50.345Z,6.54
2022-10-28T00:39:21.743Z,6.54
2022-10-28T00:41:52.938Z,6.55
2022-10-28T00:44:40.314Z,6.54
2022-10-28T00:47:36.595Z,6.53
2022-10-28T00:50:12.763Z,6.52
2022-10-28T00:52:42.144Z,6.53
2022-10-28T00:55:11.433Z,6.52
2022-10-28T00:57:42.234Z,6.53
2022-10-28T01:00:12.079Z,6.55
2022-10-28T01:02:58.762Z,6.53
2022-10-28T01:05:30.409Z,6.49
2022-10-28T01:08:02.227Z,6.45
2022-10-28T01:10:49.058Z,6.42
2022-10-28T01:13:56.921Z,6.40
2022-10-28T01:17:03.168Z,6.42
2022-10-28T01:20:07.616Z,6.45
2022-10-28T01:22:58.890Z,6.47
2022-10-28T01:25:36.627Z,6.46
2022-10-28T01:29:22.683Z,6.42
2022-10-28T01:32:22.460Z,6.37
2022-10-28T01:35:16.979Z,6.32
2022-10-28T01:38:14.150Z,6.26
2022-10-28T01:41:06.191Z,6.22
2022-10-28T01:44:02.533Z,6.20
2022-10-28T01:46:49.860Z,6.14
2022-10-28T01:49:49.629Z,6.10
2022-10-28T01:52:22.806Z,6.06
2022-10-28T01:55:00.953Z,6.05
2022-10-28T01:57:30.760Z,6.04
2022-10-28T02:00:00.676Z,6.04
2022-10-28T02:02:33.456Z,6.00
2022-10-28T02:05:28.239Z,5.93
2022-10-28T02:08:00.565Z,5.85
2022-10-28T02:10:34.273Z,5.75
2022-10-28T02:13:08.134Z,5.69
2022-10-28T02:16:22.715Z,5.64
2022-10-28T02:19:09.631Z,5.57
2022-10-28T02:21:47.140Z,5.48
2022-10-28T02:24:29.602Z,5.40
2022-10-28T02:27:08.301Z,5.32
2022-10-28T02:29:42.295Z,5.29
2022-10-28T02:32:20.267Z,5.27
2022-10-28T02:34:51.319Z,5.24
2022-10-28T02:37:25.709Z,5.23
2022-10-28T02:39:58.843Z,5.23
2022-10-28T02:42:40.523Z,5.22
2022-10-28T02:45:22.976Z,5.22
2022-10-28T02:48:20.562Z,5.25
2022-10-28T02:50:55.479Z,5.25
2022-10-28T02:53:40.760Z,5.25
2022-10-28T02:56:09.907Z,5.25
2022-10-28T02:58:40.840Z,5.16
2022-10-28T03:01:09.645Z,5.03
2022-10-28T03:03:39.206Z,4.93
